Observations for REGGIO CALABRIA AFB, Italy (LICR)

LICR 191950Z 10002KT CAVOK 21/17 Q1019  
LICR 191850Z 10003KT CAVOK 21/17 Q1019  
LICR 191750Z 14004KT CAVOK 21/18 Q1018  
LICR 191650Z 18005KT CAVOK 22/19 Q1018  
LICR 191550Z 19007KT CAVOK 22/18 Q1018  
LICR 191450Z 20008KT 180V240 CAVOK 24/18 Q1018  
LICR 191350Z 20008KT CAVOK 24/18 Q1017  
LICR 191250Z 20007KT CAVOK 25/18 Q1017  
LICR 191150Z 20010KT CAVOK 24/17 Q1018  
LICR 191050Z 20010KT CAVOK 25/18 Q1018  
LICR 190950Z 22011KT CAVOK 24/18 Q1019  
LICR 190850Z 23008KT CAVOK 24/17 Q1019  
LICR 190750Z 26003KT CAVOK 22/14 Q1019  
LICR 190650Z 10002KT CAVOK 21/12 Q1018  
LICR 190550Z 06005KT CAVOK 19/10 Q1018  
LICR 190450Z 06004KT CAVOK 18/11 Q1017  
LICR 190250Z 07004KT CAVOK 17/11 Q1017  
LICR 190250Z 06005KT CAVOK 17/11 Q1017
LICR 190250Z 07004KT CAVOK 17/11 Q1017
LICR 182150Z 08004KT CAVOK 18/12 Q1018  
LICR 182050Z 06004KT CAVOK 18/12 Q1018  
LICR 181950Z 06003KT CAVOK 19/12 Q1018